Main Content

NOTICE: Although all weather products are taken from the National Weather Service, this data should be used only as a supplement to a formal weather briefing.

Last Updated: Monday, May 23rd, 2022, 3:47 am
Information on this page is updated every 5 minutes.


METARS

KMDH 230752Z AUTO 36005KT 10SM FEW110 12/09 A3024 RMK AO2 SLP239 T01220094

KMDH 230652Z AUTO 35005KT 10SM BKN100 13/09 A3025 RMK AO2 SLP244 T01280094

KMDH 230552Z AUTO 35003KT 10SM CLR 13/09 A3027 RMK AO2 SLP249 T01280094 10167

KMWA 230835Z AUTO 01006KT 10SM SCT110 12/09 A3024 RMK AO2 T01160088

KMWA 230815Z AUTO 02006KT 10SM SCT110 12/09 A3024 RMK AO2 T01180090

KMWA 230755Z AUTO 01006KT 10SM CLR 12/09 A3024 RMK AO2 T01180091

KMWA 230735Z AUTO 01005KT 10SM CLR 12/09 A3025 RMK AO2 T01220090

KMWA 230715Z AUTO 01006KT 10SM SCT100 12/09 A3025 RMK AO2 T01200092

KMWA 230655Z AUTO 02006KT 10SM BKN100 12/09 A3026 RMK AO2 T01230091

KMWA 230635Z AUTO 01006KT 10SM SCT110 13/09 A3027 RMK AO2 T01260091

KMWA 230615Z AUTO 01005KT 10SM OVC110 13/09 A3027 RMK AO2 T01270093

KMWA 230555Z AUTO 02007KT 10SM OVC110 13/09 A3027 RMK AO2 T01270094 10157 20124

KCGI 230753Z AUTO 02011KT 10SM OVC110 14/08 A3021 RMK AO2 SLP229 T01390078

KCGI 230653Z AUTO 01008KT 10SM OVC110 14/08 A3023 RMK AO2 SLP235 T01440083

KCGI 230553Z AUTO 02007KT 10SM CLR 14/09 A3025 RMK AO2 SLP243 T01440089 10167

KSAR 230815Z AUTO 01003KT 10SM SCT100 10/09 A3027 RMK AO2 T01020085

KSAR 230755Z AUTO 00000KT 10SM CLR 10/09 A3028 RMK AO2 T01030086

KSAR 230735Z AUTO 02003KT 10SM CLR 11/09 A3028 RMK AO2 T01050086

KSAR 230715Z AUTO 02003KT 10SM CLR 11/09 A3028 RMK AO2 T01080085

KSAR 230655Z AUTO 01004KT 10SM CLR 11/09 A3029 RMK AO2 T01070087

KSAR 230635Z AUTO 03004KT 10SM CLR 11/09 A3029 RMK AO2 T01060088

KSAR 230615Z AUTO 02003KT 10SM CLR 11/09 A3029 RMK AO2 T01090088

KSAR 230555Z AUTO 02003KT 10SM CLR 11/09 A3030 RMK AO2 T01100089 10147 20110

KFAM 230756Z AUTO 01005KT 10SM FEW095 10/07 RMK AO2 SLPNO T01000067 $

KFAM 230656Z AUTO 01005KT 10SM FEW100 11/07 RMK AO2 SLPNO T01060072 $

KFAM 230556Z AUTO 36004KT 10SM BKN100 11/07 RMK AO2 SLPNO T01110072 10144 20111

KMVN 230756Z AUTO 02005KT 10SM CLR 12/08 A3026 RMK AO2 SLP249 T01170078

KMVN 230656Z AUTO 03006KT 10SM CLR 12/08 A3027 RMK AO2 SLP252 T01170083

KMVN 230556Z AUTO 02004KT 10SM CLR 12/09 A3029 RMK AO2 SLP260 T01170089 10156

KHSB 230835Z AUTO 02008KT 10SM BKN038 BKN110 13/05 A3024 RMK AO2 T01310045

KHSB 230815Z AUTO 02006KT 10SM SCT038 BKN110 13/05 A3024 RMK AO2 T01320047

KHSB 230755Z AUTO 02006KT 10SM OVC110 14/05 A3024 RMK AO2 T01350045

KCIR 230835Z AUTO 05008KT 10SM BKN039 15/09 A3020 RMK AO2 T01450085

KCIR 230815Z AUTO 04007KT 10SM SCT039 SCT110 15/09 A3020 RMK AO2 T01450086

KCIR 230755Z AUTO 06008KT 10SM SCT110 15/09 A3020 RMK AO2 T01470085

KPAH 230753Z AUTO 02006KT 10SM BKN047 15/08 A3019 RMK AO2 SLP220 T01500078 $

KFAM 230756Z AUTO 01005KT 10SM FEW095 10/07 RMK AO2 SLPNO T01000067 $

KBLV 230756Z AUTO 01003KT 10SM CLR 11/08 A3026 RMK AO2 SLP250 T01060077 CHINO

KSUS 230836Z AUTO 00000KT 2 1/2SM R08R/2800VP6000FT BR FEW002 08/07 A3027 RMK

KSUS 230754Z AUTO 25003KT 9SM CLR 08/07 A3028 RMK AO2 SLP253 T00780072 $

KVIH 230753Z AUTO 04005KT 10SM CLR 07/06 A3027 RMK AO2 SLP250 T00720056

KENL 230835Z AUTO 00000KT 10SM CLR 12/08 A3025 RMK AO2 T01210079

KENL 230815Z AUTO 04005KT 10SM CLR 12/08 A3025 RMK AO2 T01230080

KENL 230755Z AUTO 03004KT 10SM CLR 13/08 A3026 RMK AO2 T01250081

KMTO 230753Z AUTO 03004KT 10SM CLR 10/07 A3029 RMK AO2 SLP256 T01000067 $

KFWC 230835Z AUTO 01006KT 10SM CLR 12/07 A3024 RMK AO1 T01200070

KFWC 230815Z AUTO 02007KT 10SM CLR 12/07 A3024 RMK AO1 T01230068

KFWC 230755Z AUTO 01006KT 10SM CLR 12/07 A3024 RMK AO1 T01230070

KCUL 230836Z AUTO 02006KT 10SM BKN110 14/08 A3024 RMK AO2

KCUL 230816Z AUTO 03008KT 10SM BKN110 14/08 A3023 RMK AO2

KCUL 230756Z AUTO 02008KT 10SM SCT110 14/08 A3024 RMK AO2

KEVV 230754Z AUTO 04009KT 10SM OVC100 14/07 A3023 RMK AO2 SLP234 T01440072 $

KCEY 230835Z AUTO 02010KT 10SM FEW026 OVC031 14/10 A3016 RMK AO1

KCEY 230815Z AUTO 02010KT 10SM FEW026 OVC031 15/10 A3016 RMK AO1

KCEY 230755Z AUTO 02008KT 10SM OVC031 15/10 A3016 RMK AO1

KHOP 230756Z AUTO 02008KT 10SM SCT100 15/13 A3014 RMK AO2 SLP207 T01470129

KJBR 230753Z AUTO 02007KT 10SM OVC029 15/09 A3017 RMK AO2 SLP213 T01500094 $

KALN 230835Z AUTO 00000KT 10SM CLR 10/07 A3028 RMK AO2 T00950072

KALN 230815Z AUTO 00000KT 10SM CLR 10/08 A3028 RMK AO2 T00960075

KALN 230755Z AUTO 00000KT 10SM CLR 10/08 A3029 RMK AO2 T00970076

KALN 230835Z AUTO 00000KT 10SM CLR 10/07 A3028 RMK AO2 T00950072

KALN 230815Z AUTO 00000KT 10SM CLR 10/08 A3028 RMK AO2 T00960075

KALN 230755Z AUTO 00000KT 10SM CLR 10/08 A3029 RMK AO2 T00970076

KCOU 230754Z AUTO 03005KT 10SM CLR 08/06 A3029 RMK AO2 SLP256 T00780061

KAJG 230815Z AUTO 04007KT 10SM BKN100 14/07 A3026 RMK AO2 T01360070

KAJG 230755Z AUTO 04007KT 10SM CLR 14/07 A3025 RMK AO2 T01360071

KM30 230835Z AUTO 36006KT 10SM BKN048 14/07 A3020 RMK AO2 T01410073

KM30 230815Z AUTO 02006KT 10SM SCT048 14/07 A3020 RMK AO2 T01400074

KM30 230755Z AUTO 02006KT 10SM CLR 14/08 A3021 RMK AO2 T01400075

KDEC 230754Z AUTO 04003KT 10SM CLR 08/07 A3031 RMK AO2 SLP264 T00830072

KIJX 230815Z AUTO 35007KT 10SM CLR 07/07 A3031 RMK AO2 T00650065

KIJX 230755Z AUTO 35004KT 10SM CLR 07/07 A3032 RMK AO2 T00670067


TAFS

KEVV 230520Z 2306/2406 02007KT P6SM BKN080

        FM231300 05010G18KT P6SM BKN060

        FM232300 07005KT P6SM SCT070


Winds Aloft


Reports

No pilot reports found for area.



Area Forecast



Significant Weather

WAUS44 KKCI 230845 DFWT WA 230845 AIRMET TANGO UPDT 1 FOR TURB VALID UNTIL 231500 AIRMET TURB...OK TX AR TN LA MS AL MO LM MI LH IL IN KY AND CSTL WTRS FROM 40E ASP TO 50ENE ECK TO DXO TO FWA TO CVG TO 20SSE SQS TO 110S LCH TO 30NE PSX TO 30NNE SGF TO COU TO 20SW ORD TO 40E ASP MOD TURB BTN FL270 AND FL360. CONDS CONTG BYD 15Z THRU 21Z. OTLK VALID 1500-2100Z...TURB TX AND CSTL WTRS BOUNDED BY 20SSE DLF-50SE PSX-130ENE BRO-80E BRO-80W BRO-30WNW LRD-20SSE DLF MOD TURB BTN FL370 AND FL440. CONDS ENDG 18-21Z.

WAUS43 KKCI 230845 CHIT WA 230845 AIRMET TANGO UPDT 1 FOR TURB VALID UNTIL 231500 AIRMET TURB...MO LM MI LH IL IN KY OK TX AR TN LA MS AL AND CSTL WTRS FROM 40E ASP TO 50ENE ECK TO DXO TO FWA TO CVG TO 20SSE SQS TO 110S LCH TO 30NE PSX TO 30NNE SGF TO COU TO 20SW ORD TO 40E ASP MOD TURB BTN FL270 AND FL360. CONDS CONTG BYD 15Z THRU 21Z.